createdAt,value
2019-03-28T00:01:42.197Z,206.40
2019-03-28T00:04:10.448Z,88.20
2019-03-28T00:06:38.813Z,84.73
2019-03-28T00:09:07.962Z,81.87
2019-03-28T00:11:36.229Z,82.60
2019-03-28T00:14:04.483Z,81.60
2019-03-28T00:16:32.751Z,78.97
2019-03-28T00:19:00.938Z,79.17
2019-03-28T00:21:29.208Z,74.47
2019-03-28T00:24:02.413Z,73.90
2019-03-28T00:26:31.790Z,76.87
2019-03-28T00:29:00.324Z,78.15
2019-03-28T00:31:28.660Z,74.87
2019-03-28T00:33:56.932Z,78.77
2019-03-28T00:36:25.158Z,76.87
2019-03-28T00:38:53.504Z,78.23
2019-03-28T00:41:21.873Z,77.60
2019-03-28T00:43:50.200Z,77.00
2019-03-28T00:46:18.973Z,75.42
2019-03-28T00:48:47.305Z,76.62
2019-03-28T00:51:15.592Z,73.65
2019-03-28T00:53:43.876Z,76.30
2019-03-28T00:56:12.165Z,73.60
2019-03-28T00:58:40.427Z,82.37
2019-03-28T01:01:08.684Z,75.15
2019-03-28T01:03:36.968Z,76.47
2019-03-28T01:06:05.245Z,75.28
2019-03-28T01:08:33.553Z,76.25
2019-03-28T01:11:01.798Z,74.12
2019-03-28T01:13:30.089Z,77.42
2019-03-28T01:15:58.364Z,75.80
2019-03-28T01:18:26.638Z,75.80
2019-03-28T01:20:54.922Z,77.00
2019-03-28T01:23:23.243Z,75.30
2019-03-28T01:25:51.470Z,78.78
2019-03-28T01:28:19.741Z,75.52
2019-03-28T01:30:48.026Z,78.20
2019-03-28T01:33:16.287Z,78.30
2019-03-28T01:35:44.596Z,75.80
2019-03-28T01:38:12.939Z,80.40
2019-03-28T01:40:41.207Z,78.70
2019-03-28T01:43:09.450Z,78.25
2019-03-28T01:45:37.768Z,77.32
2019-03-28T01:48:06.166Z,75.90
2019-03-28T01:50:34.420Z,76.47
2019-03-28T01:53:02.632Z,75.47
2019-03-28T01:55:30.888Z,79.53
2019-03-28T01:57:59.167Z,79.65
2019-03-28T02:00:27.454Z,76.28
2019-03-28T02:02:55.713Z,78.40
2019-03-28T02:05:23.987Z,79.35
2019-03-28T02:07:52.241Z,78.05
2019-03-28T02:10:20.544Z,77.65
2019-03-28T02:12:48.803Z,75.28
2019-03-28T02:15:17.197Z,80.17
2019-03-28T02:17:45.466Z,77.75
2019-03-28T02:20:13.828Z,76.72
2019-03-28T02:22:42.150Z,78.05
2019-03-28T02:25:10.493Z,80.77
2019-03-28T02:27:38.746Z,79.30
2019-03-28T02:30:07.544Z,76.77
2019-03-28T02:32:35.889Z,78.47
2019-03-28T02:35:04.483Z,79.50
2019-03-28T02:37:32.823Z,76.28
2019-03-28T02:40:01.080Z,75.63
2019-03-28T02:42:29.345Z,85.33
2019-03-28T02:44:57.657Z,76.80
2019-03-28T02:47:25.899Z,77.03
2019-03-28T02:49:54.203Z,74.27
2019-03-28T02:52:22.466Z,77.95
2019-03-28T02:54:50.731Z,73.57
2019-03-28T02:57:20.051Z,75.32
2019-03-28T02:59:48.322Z,77.30
2019-03-28T03:02:16.597Z,76.13
2019-03-28T03:04:44.903Z,76.75
2019-03-28T03:07:13.129Z,75.78
2019-03-28T03:09:41.436Z,81.95
2019-03-28T03:12:09.685Z,76.95
2019-03-28T03:14:37.978Z,76.90
2019-03-28T03:17:06.263Z,75.57
2019-03-28T03:19:34.546Z,75.30
2019-03-28T03:22:03.176Z,75.65
2019-03-28T03:24:31.470Z,79.50
2019-03-28T03:26:59.877Z,74.77
2019-03-28T03:29:28.181Z,72.05
2019-03-28T03:31:56.539Z,77.63
2019-03-28T03:34:24.814Z,78.47
2019-03-28T03:36:53.078Z,81.27
2019-03-28T03:39:21.341Z,76.47
2019-03-28T03:41:49.643Z,78.33
2019-03-28T03:44:17.922Z,77.30
2019-03-28T03:46:46.184Z,78.17
2019-03-28T03:49:14.494Z,75.47
2019-03-28T03:51:46.393Z,72.87
2019-03-28T03:54:12.758Z,74.17
2019-03-28T03:56:41.032Z,74.57
2019-03-28T03:59:09.309Z,77.57
2019-03-28T04:01:37.584Z,79.22
2019-03-28T04:04:05.875Z,74.90
2019-03-28T04:06:34.247Z,74.58
2019-03-28T04:09:02.511Z,77.03
2019-03-28T04:11:30.813Z,78.13
2019-03-28T04:13:59.194Z,76.50
2019-03-28T04:16:27.543Z,75.77
2019-03-28T04:18:55.804Z,86.33
2019-03-28T04:21:24.116Z,77.23
2019-03-28T04:23:52.379Z,73.27
2019-03-28T04:26:20.655Z,74.20
2019-03-28T04:28:48.912Z,77.63
2019-03-28T04:31:17.114Z,74.20
2019-03-28T04:33:45.365Z,76.67
2019-03-28T04:36:14.478Z,75.50
2019-03-28T04:38:42.749Z,74.50
2019-03-28T04:41:11.016Z,75.57
2019-03-28T04:43:39.372Z,75.70
2019-03-28T04:46:07.726Z,83.60
2019-03-28T04:48:36.049Z,78.57
2019-03-28T04:51:04.234Z,76.20
2019-03-28T04:53:32.526Z,76.90
2019-03-28T04:56:00.771Z,79.20
2019-03-28T04:58:28.945Z,78.57
2019-03-28T05:00:57.230Z,76.50
2019-03-28T05:03:25.506Z,78.13
2019-03-28T05:05:53.798Z,77.33
2019-03-28T05:08:22.138Z,80.23
2019-03-28T05:10:50.442Z,81.43
2019-03-28T05:13:18.737Z,75.67
2019-03-28T05:15:47.005Z,75.93
2019-03-28T05:18:15.259Z,76.00
2019-03-28T05:20:43.440Z,77.10
2019-03-28T05:23:11.622Z,80.43
2019-03-28T05:25:39.889Z,75.53
2019-03-28T05:28:08.216Z,77.00
2019-03-28T05:30:36.553Z,79.77
2019-03-28T05:33:04.830Z,75.40
2019-03-28T05:35:33.112Z,74.27
2019-03-28T05:38:02.396Z,77.97
2019-03-28T05:40:30.781Z,77.47
2019-03-28T05:42:59.033Z,74.90
2019-03-28T05:45:27.403Z,77.43
2019-03-28T05:47:55.702Z,77.80
2019-03-28T05:50:24.026Z,77.50
2019-03-28T05:52:52.368Z,78.53
2019-03-28T05:55:20.643Z,79.73
2019-03-28T05:57:48.921Z,73.97
2019-03-28T06:00:17.184Z,73.90
2019-03-28T06:02:45.473Z,77.07
2019-03-28T06:05:13.742Z,77.73
2019-03-28T06:07:42.033Z,77.17
2019-03-28T06:10:10.466Z,80.80
2019-03-28T06:12:38.993Z,78.30
2019-03-28T06:15:07.482Z,89.20
2019-03-28T06:17:35.750Z,77.60
2019-03-28T06:20:04.541Z,78.40
2019-03-28T06:22:32.828Z,78.27
2019-03-28T06:25:05.579Z,76.80
2019-03-28T06:27:31.011Z,77.87
2019-03-28T06:30:01.867Z,79.23
2019-03-28T06:32:41.946Z,80.17
2019-03-28T06:34:59.325Z,80.70
2019-03-28T06:37:27.672Z,78.90
2019-03-28T06:39:56.903Z,76.87
2019-03-28T06:42:25.173Z,81.30
2019-03-28T06:44:53.968Z,82.90
2019-03-28T06:47:22.677Z,77.30
2019-03-28T06:49:50.998Z,85.60
2019-03-28T06:52:19.305Z,83.20
2019-03-28T06:54:47.562Z,81.47
2019-03-28T06:57:18.683Z,79.53
2019-03-28T06:59:45.756Z,79.67
2019-03-28T07:02:14.026Z,76.63
2019-03-28T07:04:42.344Z,76.67
2019-03-28T07:07:10.604Z,79.17
2019-03-28T07:09:38.857Z,78.33
2019-03-28T07:12:07.145Z,80.13
2019-03-28T07:14:35.414Z,78.70
2019-03-28T07:17:03.701Z,95.17
2019-03-28T07:19:31.953Z,84.60
2019-03-28T07:22:00.166Z,91.37
2019-03-28T07:24:28.511Z,109.43
2019-03-28T07:26:56.730Z,92.57
2019-03-28T07:29:25.491Z,110.30
2019-03-28T07:31:54.021Z,122.27
2019-03-28T07:34:22.348Z,131.67
2019-03-28T07:36:50.629Z,110.33
2019-03-28T07:39:19.327Z,78.47
2019-03-28T07:41:47.806Z,77.57
2019-03-28T07:44:16.067Z,80.80
2019-03-28T07:46:47.409Z,79.10
2019-03-28T07:49:14.282Z,77.70
2019-03-28T07:51:42.637Z,76.90
2019-03-28T07:54:11.951Z,82.00
2019-03-28T07:56:46.264Z,99.70
2019-03-28T07:59:14.520Z,80.30
2019-03-28T08:01:43.037Z,89.63
2019-03-28T08:04:12.353Z,75.90
2019-03-28T08:06:49.761Z,80.87
2019-03-28T08:09:10.613Z,75.70
2019-03-28T08:11:38.974Z,74.97
2019-03-28T08:14:08.389Z,78.30
2019-03-28T08:16:36.655Z,85.53
2019-03-28T08:19:08.006Z,75.40
2019-03-28T08:21:35.877Z,79.30
2019-03-28T08:24:04.260Z,76.33
2019-03-28T08:26:32.558Z,78.33
2019-03-28T08:29:00.835Z,77.70
2019-03-28T08:31:29.189Z,79.27
2019-03-28T08:33:57.565Z,84.57
2019-03-28T08:36:26.871Z,79.10
2019-03-28T08:38:56.643Z,76.10
2019-03-28T08:41:24.976Z,76.70
2019-03-28T08:43:53.335Z,75.20
2019-03-28T08:46:22.624Z,76.57
2019-03-28T08:48:50.908Z,76.07
2019-03-28T08:51:19.190Z,76.43
2019-03-28T08:53:47.423Z,77.77
2019-03-28T08:56:15.763Z,77.87
2019-03-28T08:58:44.032Z,84.77
2019-03-28T09:03:58.090Z,80.70
2019-03-28T09:06:27.377Z,78.10
2019-03-28T09:08:55.663Z,80.87
2019-03-28T09:11:24.018Z,76.47
2019-03-28T09:13:52.296Z,82.30
2019-03-28T09:16:20.658Z,85.63
2019-03-28T09:21:35.277Z,76.97
2019-03-28T09:24:03.547Z,79.43
2019-03-28T09:26:31.833Z,77.00
2019-03-28T09:29:00.087Z,79.07
2019-03-28T09:31:28.331Z,81.10
2019-03-28T09:33:56.685Z,78.40
2019-03-28T09:36:25.007Z,79.57
2019-03-28T09:38:53.299Z,78.73
2019-03-28T09:41:21.578Z,75.53
2019-03-28T09:43:55.566Z,78.47
2019-03-28T09:46:19.777Z,76.60
2019-03-28T09:48:48.051Z,78.40
2019-03-28T09:51:16.326Z,77.10
2019-03-28T09:53:44.572Z,72.80
2019-03-28T09:56:12.946Z,75.00
2019-03-28T09:58:41.235Z,76.87
2019-03-28T10:01:09.509Z,74.50
2019-03-28T10:03:37.789Z,72.70
2019-03-28T10:06:07.137Z,76.50
2019-03-28T10:08:35.376Z,73.90
2019-03-28T10:11:03.939Z,74.90
2019-03-28T10:13:32.235Z,74.10
2019-03-28T10:16:00.513Z,73.90
2019-03-28T10:18:30.209Z,74.13
2019-03-28T10:20:58.518Z,73.73
2019-03-28T10:23:26.780Z,74.50
2019-03-28T10:25:55.062Z,73.97
2019-03-28T10:28:23.221Z,72.70
2019-03-28T10:30:51.464Z,71.10
2019-03-28T10:33:20.006Z,73.70
2019-03-28T10:35:48.269Z,73.27
2019-03-28T10:38:16.793Z,75.13
2019-03-28T10:40:45.121Z,74.20
2019-03-28T10:43:13.298Z,71.70
2019-03-28T10:45:41.723Z,72.77
2019-03-28T10:48:09.992Z,72.03
2019-03-28T10:50:45.321Z,72.17
2019-03-28T10:53:08.171Z,83.13
2019-03-28T10:55:36.535Z,72.70
2019-03-28T10:58:17.560Z,70.17
2019-03-28T11:00:36.941Z,73.57
2019-03-28T11:03:05.234Z,72.50
2019-03-28T11:05:33.630Z,76.03
2019-03-28T11:08:01.899Z,71.17
2019-03-28T11:10:30.712Z,72.40
2019-03-28T11:12:59.065Z,74.60
2019-03-28T11:15:27.281Z,70.90
2019-03-28T11:17:55.619Z,71.47
2019-03-28T11:20:23.881Z,76.80
2019-03-28T11:22:52.140Z,72.17
2019-03-28T11:25:20.441Z,70.60
2019-03-28T11:27:49.579Z,70.37
2019-03-28T11:30:18.473Z,71.77
2019-03-28T11:32:47.020Z,70.40
2019-03-28T11:35:15.338Z,75.60
2019-03-28T11:37:43.653Z,72.40
2019-03-28T11:40:12.938Z,70.53
2019-03-28T11:42:41.531Z,70.13
2019-03-28T11:45:10.285Z,68.80
2019-03-28T11:47:38.650Z,71.30
2019-03-28T11:50:07.208Z,71.00
2019-03-28T11:52:35.517Z,68.97
2019-03-28T11:55:03.921Z,71.87
2019-03-28T11:57:33.240Z,70.87
2019-03-28T12:00:01.537Z,71.33
2019-03-28T12:02:29.808Z,71.80
2019-03-28T12:04:58.087Z,71.23
2019-03-28T12:07:26.382Z,75.20
2019-03-28T12:09:54.748Z,70.77
2019-03-28T12:12:23.001Z,73.43
2019-03-28T12:14:51.304Z,71.67
2019-03-28T12:17:19.554Z,71.43
2019-03-28T12:19:47.856Z,69.90
2019-03-28T12:22:16.121Z,69.87
2019-03-28T12:24:44.414Z,69.13
2019-03-28T12:27:12.676Z,70.87
2019-03-28T12:29:40.937Z,68.07
2019-03-28T12:32:14.282Z,72.67
2019-03-28T12:34:39.037Z,67.77
2019-03-28T12:37:07.310Z,67.60
2019-03-28T12:39:35.582Z,68.40
2019-03-28T12:42:03.874Z,84.43
2019-03-28T12:44:32.154Z,68.77
2019-03-28T12:47:00.400Z,67.70
2019-03-28T12:49:28.771Z,67.97
2019-03-28T12:51:56.979Z,67.87
2019-03-28T12:54:25.237Z,67.77
2019-03-28T12:56:53.534Z,74.30
2019-03-28T12:59:21.805Z,66.20
2019-03-28T13:01:50.069Z,67.17
2019-03-28T13:04:18.458Z,67.00
2019-03-28T13:06:46.743Z,69.47
2019-03-28T13:09:15.020Z,66.30
2019-03-28T13:11:43.283Z,66.17
2019-03-28T13:14:11.565Z,66.73
2019-03-28T13:16:39.904Z,69.83
2019-03-28T13:19:08.227Z,69.37
2019-03-28T13:21:36.490Z,77.53
2019-03-28T13:24:07.678Z,73.93
2019-03-28T13:26:34.668Z,69.83
2019-03-28T13:29:02.958Z,71.80
2019-03-28T13:31:31.223Z,70.67
2019-03-28T13:33:59.502Z,70.20
2019-03-28T13:36:27.733Z,68.37
2019-03-28T13:38:57.566Z,70.60
2019-03-28T13:41:27.444Z,68.80
2019-03-28T13:43:56.916Z,68.07
2019-03-28T13:46:26.848Z,71.20
2019-03-28T13:48:55.146Z,68.47
2019-03-28T13:51:23.465Z,71.90
2019-03-28T13:53:52.238Z,70.57
2019-03-28T13:56:21.744Z,68.93
2019-03-28T13:58:50.065Z,70.20
2019-03-28T14:01:18.317Z,71.37
2019-03-28T14:03:46.608Z,69.30
2019-03-28T14:06:14.870Z,78.50
2019-03-28T14:08:43.170Z,72.40
2019-03-28T14:11:11.481Z,69.93
2019-03-28T14:13:39.797Z,78.00
2019-03-28T14:16:07.989Z,72.47
2019-03-28T14:18:36.245Z,70.57
2019-03-28T14:21:04.882Z,72.90
2019-03-28T14:23:33.123Z,69.67
2019-03-28T14:26:01.394Z,71.10
2019-03-28T14:28:29.681Z,71.50
2019-03-28T14:31:00.767Z,69.57
2019-03-28T14:33:27.829Z,70.70
2019-03-28T14:35:56.264Z,69.10
2019-03-28T14:38:24.535Z,69.47
2019-03-28T14:40:52.813Z,71.63
2019-03-28T14:43:21.311Z,69.70
2019-03-28T14:45:49.649Z,70.47
2019-03-28T14:48:17.882Z,70.20
2019-03-28T14:50:46.212Z,70.67
2019-03-28T14:53:14.479Z,68.27
2019-03-28T14:55:42.791Z,68.87
2019-03-28T14:58:11.080Z,69.20
2019-03-28T15:00:46.570Z,70.17
2019-03-28T15:03:24.867Z,72.10
2019-03-28T15:05:43.677Z,70.17
2019-03-28T15:08:12.038Z,69.30
2019-03-28T15:10:40.437Z,69.37
2019-03-28T15:13:08.892Z,69.60
2019-03-28T15:15:37.154Z,69.50
2019-03-28T15:18:05.467Z,70.83
2019-03-28T15:20:33.901Z,68.77
2019-03-28T15:23:02.183Z,69.43
2019-03-28T15:25:30.387Z,69.97
2019-03-28T15:27:58.664Z,69.37
2019-03-28T15:30:28.525Z,69.90
2019-03-28T15:32:57.322Z,69.83
2019-03-28T15:35:25.653Z,69.10
2019-03-28T15:37:54.045Z,68.70
2019-03-28T15:40:22.313Z,70.60
2019-03-28T15:42:50.528Z,69.20
2019-03-28T15:45:18.744Z,70.40
2019-03-28T15:47:47.017Z,70.87
2019-03-28T15:50:15.398Z,73.37
2019-03-28T15:52:43.656Z,69.60
2019-03-28T15:55:14.552Z,70.40
2019-03-28T15:57:41.837Z,69.60
2019-03-28T16:00:10.666Z,70.67
2019-03-28T16:02:38.924Z,71.40
2019-03-28T16:05:07.191Z,69.37
2019-03-28T16:07:35.473Z,69.10
2019-03-28T16:10:03.867Z,73.10
2019-03-28T16:12:32.157Z,68.17
2019-03-28T16:15:00.484Z,67.80
2019-03-28T16:17:28.700Z,69.50
2019-03-28T16:19:57.814Z,71.57
2019-03-28T16:22:27.297Z,69.20
2019-03-28T16:24:56.056Z,69.07
2019-03-28T16:27:25.359Z,71.07
2019-03-28T16:29:54.403Z,70.83
2019-03-28T16:32:22.834Z,71.27
2019-03-28T16:34:52.143Z,72.37
2019-03-28T16:37:20.430Z,70.20
2019-03-28T16:39:50.156Z,80.30
2019-03-28T16:42:18.497Z,69.50
2019-03-28T16:44:47.819Z,71.50
2019-03-28T16:47:16.077Z,72.10
2019-03-28T16:49:45.468Z,71.37
2019-03-28T16:52:13.640Z,79.13
2019-03-28T16:54:41.940Z,69.10
2019-03-28T16:57:10.221Z,69.67
2019-03-28T16:59:38.481Z,69.70
2019-03-28T17:02:06.792Z,71.17
2019-03-28T17:04:35.153Z,68.77
2019-03-28T17:07:04.450Z,69.30
2019-03-28T17:09:32.707Z,69.90
2019-03-28T17:12:01.064Z,74.50
2019-03-28T17:14:29.505Z,70.50
2019-03-28T17:16:57.741Z,69.17
2019-03-28T17:19:26.032Z,79.07
2019-03-28T17:21:54.292Z,74.97
2019-03-28T17:24:22.522Z,73.10
2019-03-28T17:26:50.862Z,75.63
2019-03-28T17:29:20.138Z,79.57
2019-03-28T17:31:48.492Z,77.57
2019-03-28T17:34:16.775Z,72.23
2019-03-28T17:36:45.218Z,74.23
2019-03-28T17:39:13.595Z,81.20
2019-03-28T17:41:42.017Z,72.20
2019-03-28T17:44:10.367Z,72.37
2019-03-28T17:46:39.045Z,76.77
2019-03-28T17:49:07.414Z,73.57
2019-03-28T17:51:35.877Z,74.50
2019-03-28T17:54:04.182Z,73.77
2019-03-28T17:56:32.476Z,74.70
2019-03-28T17:59:00.818Z,78.50
2019-03-28T18:01:29.118Z,70.77
2019-03-28T18:03:57.392Z,73.20
2019-03-28T18:06:25.722Z,72.50
2019-03-28T18:08:54.000Z,73.30
2019-03-28T18:11:22.240Z,75.40
2019-03-28T18:13:50.704Z,84.70
2019-03-28T18:16:19.225Z,71.53
2019-03-28T18:18:47.614Z,73.90
2019-03-28T18:21:15.907Z,77.80
2019-03-28T18:23:44.220Z,71.87
2019-03-28T18:26:12.607Z,75.20
2019-03-28T18:28:40.961Z,74.93
2019-03-28T18:31:09.254Z,72.10
2019-03-28T18:33:37.647Z,69.77
2019-03-28T18:36:06.040Z,72.80
2019-03-28T18:38:34.374Z,69.20
2019-03-28T18:41:02.640Z,69.60
2019-03-28T18:43:30.907Z,71.57
2019-03-28T18:45:59.852Z,70.17
2019-03-28T18:48:35.869Z,72.17
2019-03-28T18:50:58.581Z,70.90
2019-03-28T18:53:26.915Z,76.20
2019-03-28T18:55:55.867Z,69.27
2019-03-28T18:58:24.485Z,69.60
2019-03-28T19:00:53.803Z,70.00
2019-03-28T19:03:22.191Z,74.73
2019-03-28T19:05:50.658Z,72.60
2019-03-28T19:08:18.999Z,74.67
2019-03-28T19:10:50.610Z,71.00
2019-03-28T19:13:17.364Z,71.57
2019-03-28T19:15:45.698Z,71.30
2019-03-28T19:18:14.259Z,73.43
2019-03-28T19:20:42.768Z,73.40
2019-03-28T19:23:11.004Z,74.83
2019-03-28T19:25:39.281Z,73.70
2019-03-28T19:28:07.944Z,70.50
2019-03-28T19:30:36.329Z,72.30
2019-03-28T19:33:06.910Z,73.20
2019-03-28T19:35:35.388Z,71.93
2019-03-28T19:38:03.675Z,71.70
2019-03-28T19:40:32.279Z,72.23
2019-03-28T19:43:02.206Z,71.30
2019-03-28T19:45:37.520Z,70.67
2019-03-28T19:48:06.631Z,73.07
2019-03-28T19:50:34.995Z,70.77
2019-03-28T19:53:03.550Z,73.40
2019-03-28T19:55:31.837Z,74.97
2019-03-28T19:58:00.320Z,72.77
2019-03-28T20:00:28.587Z,74.37
2019-03-28T20:03:00.098Z,71.97
2019-03-28T20:05:26.856Z,77.63
2019-03-28T20:07:55.147Z,72.53
2019-03-28T20:10:23.478Z,72.80
2019-03-28T20:12:51.888Z,72.50
2019-03-28T20:15:20.157Z,71.80
2019-03-28T20:17:48.445Z,71.33
2019-03-28T20:20:16.732Z,74.23
2019-03-28T20:22:45.150Z,72.70
2019-03-28T20:25:13.393Z,70.97
2019-03-28T20:27:41.659Z,72.30
2019-03-28T20:30:10.203Z,72.10
2019-03-28T20:32:38.573Z,72.87
2019-03-28T20:35:10.261Z,71.57
2019-03-28T20:37:37.890Z,72.00
2019-03-28T20:40:06.391Z,72.20
2019-03-28T20:42:34.997Z,72.47
2019-03-28T20:45:03.515Z,74.03
2019-03-28T20:47:31.842Z,74.70
2019-03-28T20:50:01.023Z,70.97
2019-03-28T20:52:29.761Z,72.07
2019-03-28T20:54:59.578Z,73.97
2019-03-28T20:57:28.110Z,70.97
2019-03-28T20:59:56.409Z,74.23
2019-03-28T21:02:24.741Z,70.17
2019-03-28T21:04:53.040Z,73.30
2019-03-28T21:07:21.552Z,73.70
2019-03-28T21:09:49.803Z,74.00
2019-03-28T21:12:18.099Z,75.60
2019-03-28T21:14:46.362Z,69.83
2019-03-28T21:17:14.671Z,71.03
2019-03-28T21:19:42.956Z,71.67
2019-03-28T21:22:11.307Z,75.13
2019-03-28T21:24:39.575Z,81.47
2019-03-28T21:27:07.885Z,73.17
2019-03-28T21:29:48.205Z,85.50
2019-03-28T21:32:06.076Z,76.90
2019-03-28T21:34:34.442Z,74.60
2019-03-28T21:37:02.685Z,71.40
2019-03-28T21:39:31.192Z,73.10
2019-03-28T21:41:59.462Z,74.13
2019-03-28T21:44:27.712Z,73.30
2019-03-28T21:46:56.019Z,76.70
2019-03-28T21:49:24.273Z,77.20
2019-03-28T21:51:52.498Z,78.67
2019-03-28T21:54:20.865Z,75.00
2019-03-28T21:56:49.263Z,75.17
2019-03-28T21:59:18.200Z,74.33
2019-03-28T22:01:46.479Z,81.03
2019-03-28T22:04:14.670Z,76.97
2019-03-28T22:06:43.448Z,78.13
2019-03-28T22:09:11.743Z,74.87
2019-03-28T22:11:40.688Z,75.00
2019-03-28T22:14:08.894Z,73.40
2019-03-28T22:16:37.168Z,73.87
2019-03-28T22:19:05.580Z,73.47
2019-03-28T22:21:33.828Z,74.83
2019-03-28T22:24:02.120Z,75.53
2019-03-28T22:26:30.396Z,72.23
2019-03-28T22:28:58.683Z,72.23
2019-03-28T22:31:27.030Z,70.87
2019-03-28T22:33:55.333Z,72.27
2019-03-28T22:36:23.690Z,72.20
2019-03-28T22:38:51.962Z,70.93
2019-03-28T22:41:20.639Z,73.70
2019-03-28T22:43:48.915Z,71.80
2019-03-28T22:46:17.241Z,70.07
2019-03-28T22:48:45.955Z,71.27
2019-03-28T22:51:14.303Z,68.90
2019-03-28T22:53:42.688Z,69.10
2019-03-28T22:58:58.194Z,68.93
2019-03-28T23:01:26.509Z,69.50
2019-03-28T23:03:54.834Z,70.97
2019-03-28T23:06:23.244Z,69.07
2019-03-28T23:08:51.529Z,69.37
2019-03-28T23:11:19.926Z,69.83
2019-03-28T23:13:48.210Z,74.03
2019-03-28T23:16:16.505Z,68.93
2019-03-28T23:18:44.754Z,68.67
2019-03-28T23:21:13.036Z,69.83
2019-03-28T23:23:41.306Z,68.80
2019-03-28T23:26:09.586Z,68.40
2019-03-28T23:28:37.875Z,68.70
2019-03-28T23:31:06.720Z,73.90
2019-03-28T23:33:35.065Z,75.57
2019-03-28T23:36:03.340Z,72.77
2019-03-28T23:38:31.672Z,69.87
2019-03-28T23:40:59.864Z,70.33
2019-03-28T23:43:28.136Z,71.30
2019-03-28T23:45:56.416Z,68.87
2019-03-28T23:48:24.688Z,70.83
2019-03-28T23:50:53.086Z,72.80
2019-03-28T23:53:21.392Z,75.77
2019-03-28T23:55:49.710Z,70.30
2019-03-28T23:58:17.999Z,69.60
